Flight Track Log - Related Links

Times and Time Zones

All times are in EDT time to prevent confusion due to time zone crossing. See the D-AIHT flight status page for this flight to view local times or setup timezone preferences in your user account.

Time Position Orientation Groundspeed Altitude Reporting Facility
EDT Latitude Longitude Course Direction KTS MPH feet Rate Location/Type
Tue 04:24:02 PM 48.3410 11.7550 265° West 180 207 1,500  Level FlightAware ADS-B
Tue 04:24:32 PM 48.3380 11.7170 263° West 181 208 2,200 1,636 Climbing FlightAware ADS-B
Tue 04:24:57 PM 48.3360 11.6860 264° West 177 204 3,000 1,200 Climbing FlightAware ADS-B
Tue 04:25:27 PM 48.3340 11.6480 265° West 197 227 3,300 667 Climbing FlightAware ADS-B
Tue 04:25:42 PM 48.3320 11.6250 263° West 210 242 3,500 750 Climbing FlightAware ADS-B
Tue 04:26:07 PM 48.3290 11.5870 263° West 229 264 3,800 764 Climbing FlightAware ADS-B
Tue 04:26:37 PM 48.3250 11.5370 263° West 251 289 4,200 1,200 Climbing FlightAware ADS-B
Tue 04:27:07 PM 48.3210 11.4840 264° West 263 303 5,000 1,745 Climbing FlightAware ADS-B
Tue 04:27:32 PM 48.3180 11.4390 264° West 267 307 5,800 1,800 Climbing FlightAware ADS-B
Tue 04:27:47 PM 48.3140 11.4100 258° West 271 312 6,200 1,400 Climbing FlightAware ADS-B
Tue 04:28:02 PM 48.3020 11.3880 231° Southwest 280 322 6,500 1,440 Climbing FlightAware ADS-B
Tue 04:28:12 PM 48.2910 11.3790 209° Southwest 275 316 6,800 1,680 Climbing FlightAware ADS-B
Tue 04:28:27 PM 48.2700 11.3780 182° South 280 322 7,200 1,400 Climbing FlightAware ADS-B
Tue 04:28:42 PM 48.2530 11.3860 163° South 287 330 7,500 1,400 Climbing FlightAware ADS-B
Tue 04:28:57 PM 48.2380 11.4090 134° Southeast 294 338 7,900 1,800 Climbing FlightAware ADS-B
Tue 04:29:12 PM 48.2300 11.4370 113° Southeast 295 339 8,400 1,500 Climbing FlightAware ADS-B
Tue 04:29:37 PM 48.2280 11.4910 93° East 305 351 8,900 982 Climbing FlightAware ADS-B
Tue 04:30:07 PM 48.2280 11.5450 90° East 319 367 9,300 800 Climbing FlightAware ADS-B
Tue 04:30:37 PM 48.2280 11.6210 90° East 344 396 9,700 764 Climbing FlightAware ADS-B
Tue 04:31:02 PM 48.2270 11.6750 92° East 359 413 10,000 1,108 Climbing FlightAware ADS-B
Tue 04:31:42 PM 48.2280 11.7730 89° East 373 429 10,900 1,482 Climbing FlightAware ADS-B
Tue 04:32:27 PM 48.2310 11.8940 88° East 382 440 12,100 1,553 Climbing FlightAware ADS-B
Tue 04:33:07 PM 48.2330 11.9920 88° East 385 443 13,100 1,500 Climbing FlightAware ADS-B
Tue 04:33:47 PM 48.2350 12.1080 88° East 392 451 14,100 1,553 Climbing FlightAware ADS-B
Tue 04:34:32 PM 48.2370 12.2280 89° East 395 455 15,300 1,533 Climbing FlightAware ADS-B
Tue 04:35:17 PM 48.2400 12.3690 88° East 402 463 16,400 1,482 Climbing FlightAware ADS-B
Tue 04:35:57 PM 48.2420 12.4770 88° East 404 465 17,400 1,500 Climbing FlightAware ADS-B
Tue 04:36:37 PM 48.2440 12.5920 88° East 405 466 18,400 1,271 Climbing FlightAware ADS-B
Tue 04:37:22 PM 48.2460 12.7160 89° East 412 474 19,200 1,200 Climbing FlightAware ADS-B
Tue 04:37:52 PM 48.2470 12.8020 89° East 413 475 19,900 1,200 Climbing FlightAware ADS-B
Tue 04:38:37 PM 48.2490 12.9200 88° East 417 480 20,700 1,074 Climbing FlightAware ADS-B
Tue 04:39:27 PM 48.2510 13.0650 89° East 421 484 21,600 1,050 Climbing FlightAware ADS-B
Tue 04:39:57 PM 48.2520 13.1580 89° East 425 489 22,100 975 Climbing FlightAware ADS-B
Tue 04:40:47 PM 48.2530 13.2980 89° East 431 496 22,900 988 Climbing FlightAware ADS-B
Tue 04:41:22 PM 48.2540 13.3990 89° East 433 498 23,500 988 Climbing FlightAware ADS-B
Tue 04:42:12 PM 48.2550 13.5530 89° East 436 502 24,300 884 Climbing FlightAware ADS-B
Tue 04:42:57 PM 48.2560 13.6830 89° East 439 505 24,900 776 Climbing FlightAware ADS-B
Tue 04:43:37 PM 48.2570 13.8120 89° East 446 513 25,400 900 Climbing FlightAware ADS-B
Tue 04:44:17 PM 48.2580 13.9430 89° East 451 519 26,100 918 Climbing FlightAware ADS-B
Tue 04:45:02 PM 48.2580 14.1000 90° East 457 526 26,700 918 Climbing FlightAware ADS-B
Tue 04:45:42 PM 48.2590 14.2330 89° East 461 531 27,400 1,129 Climbing FlightAware ADS-B
Tue 04:46:27 PM 48.2590 14.3740 90° East 460 529 28,300 1,200 Climbing FlightAware ADS-B
Tue 04:47:22 PM 48.2590 14.5480 90° East 459 528 29,400 1,364 Climbing FlightAware ADS-B
Tue 04:48:17 PM 48.2590 14.7220 90° East 452 520 30,800 1,326 Climbing FlightAware ADS-B
Tue 04:48:57 PM 48.2580 14.8530 91° East 451 519 31,500 988 Climbing FlightAware ADS-B
Tue 04:49:42 PM 48.2570 14.9840 91° East 450 518 32,200 933 Climbing FlightAware ADS-B
Tue 04:50:27 PM 48.2570 15.1270 90° East 450 518 32,900 494 Climbing FlightAware ADS-B
Tue 04:51:07 PM 48.2560 15.2530 91° East 462 532 32,900  Level FlightAware ADS-B
Tue 04:51:42 PM 48.2550 15.3650 91° East 463 533 32,900  Level FlightAware ADS-B
Tue 04:52:32 PM 48.2540 15.5250 90° East 462 532 32,900  Level FlightAware ADS-B
Tue 04:53:12 PM 48.2530 15.6530 91° East 462 532 32,900  Level FlightAware ADS-B
Tue 04:53:57 PM 48.2510 15.8000 91° East 463 533 32,900  Level FlightAware ADS-B
Tue 04:54:37 PM 48.2490 15.9280 91° East 463 533 32,900  Level FlightAware ADS-B
Tue 04:55:17 PM 48.2480 16.0560 91° East 464 534 32,900  Level FlightAware ADS-B
Tue 04:56:02 PM 48.2450 16.1910 92° East 465 535 32,900  Level FlightAware ADS-B
Tue 04:56:42 PM 48.2430 16.3230 91° East 467 537 32,900  Level FlightAware ADS-B
Tue 04:57:22 PM 48.2410 16.4590 91° East 471 542 32,900  Level FlightAware ADS-B
Tue 04:57:57 PM 48.2390 16.5670 92° East 474 545 32,900  Level FlightAware ADS-B
Tue 04:58:47 PM 48.2530 16.7350 83° East 472 543 32,900  Level FlightAware ADS-B
Tue 04:59:32 PM 48.2700 16.8760 80° East 471 542 32,900  Level FlightAware ADS-B
Tue 05:00:12 PM 48.2850 17.0050 80° East 470 541 32,900  Level FlightAware ADS-B
Tue 05:00:57 PM 48.3040 17.1520 79° East 470 541 32,900  Level FlightAware ADS-B
Tue 05:01:37 PM 48.3190 17.2810 80° East 470 541 32,900  Level FlightAware ADS-B
Tue 05:02:17 PM 48.3350 17.4090 79° East 470 541 32,900  Level FlightAware ADS-B
Tue 05:03:02 PM 48.3520 17.5530 80° East 471 542 32,900  Level FlightAware ADS-B
Tue 05:03:42 PM 48.3670 17.6790 80° East 471 542 32,900  Level FlightAware ADS-B
Tue 05:04:27 PM 48.3850 17.8270 80° East 472 543 32,900  Level FlightAware ADS-B
Tue 05:05:07 PM 48.4000 17.9590 80° East 472 543 32,900  Level FlightAware ADS-B
Tue 05:05:47 PM 48.4150 18.0850 80° East 472 543 32,900  Level FlightAware ADS-B
Tue 05:06:32 PM 48.4310 18.2280 80° East 472 543 32,900  Level FlightAware ADS-B
Tue 05:07:12 PM 48.4450 18.3540 80° East 472 543 32,900  Level FlightAware ADS-B
Tue 05:07:57 PM 48.4620 18.5060 80° East 473 544 32,900  Level FlightAware ADS-B
Tue 05:08:37 PM 48.4760 18.6350 81° East 473 544 32,900  Level FlightAware ADS-B
Tue 05:09:17 PM 48.4910 18.7650 80° East 475 547 32,900 71 Level FlightAware ADS-B
Tue 05:10:02 PM 48.5060 18.9120 81° East 473 544 33,000  Climbing FlightAware ADS-B
Tue 05:10:42 PM 48.5200 19.0380 80° East 474 545 32,900 -71 Descending FlightAware ADS-B
Tue 05:11:27 PM 48.5360 19.1880 81° East 474 545 32,900 71 Level FlightAware ADS-B
Tue 05:12:07 PM 48.5490 19.3190 81° East 473 544 33,000  Climbing FlightAware ADS-B
Tue 05:12:47 PM 48.5630 19.4490 81° East 475 547 32,900 -71 Descending FlightAware ADS-B
Tue 05:13:32 PM 48.5780 19.5960 81° East 475 547 32,900 71 Level FlightAware ADS-B
Tue 05:14:12 PM 48.5910 19.7240 81° East 471 542 33,000  Climbing FlightAware ADS-B
Tue 05:14:52 PM 48.6040 19.8560 81° East 470 541 32,900 -71 Descending FlightAware ADS-B
Tue 05:15:37 PM 48.6180 19.9990 82° East 470 541 32,900  Level FlightAware ADS-B
Tue 05:16:17 PM 48.6300 20.1260 82° East 473 544 32,900  Level FlightAware ADS-B
Tue 05:16:57 PM 48.6420 20.2570 82° East 473 544 32,900  Level FlightAware ADS-B
Tue 05:17:42 PM 48.6570 20.4100 82° East 471 542 32,900  Level FlightAware ADS-B
Tue 05:18:22 PM 48.6690 20.5400 82° East 471 542 32,900  Level FlightAware ADS-B
Tue 05:19:07 PM 48.6820 20.6840 82° East 473 544 32,900  Level FlightAware ADS-B
Tue 05:19:47 PM 48.6950 20.8180 82° East 474 545 32,900  Level FlightAware ADS-B
Tue 05:20:32 PM 48.7080 20.9690 83° East 474 545 32,900  Level FlightAware ADS-B
Tue 05:21:12 PM 48.7190 21.0970 83° East 474 545 32,900  Level FlightAware ADS-B
Tue 05:21:52 PM 48.7310 21.2280 82° East 475 547 32,900  Level FlightAware ADS-B
Tue 05:22:37 PM 48.7430 21.3730 83° East 474 545 32,900  Level FlightAware ADS-B
Tue 05:23:17 PM 48.7540 21.5050 83° East 475 547 32,900  Level FlightAware ADS-B
Tue 05:24:02 PM 48.7670 21.6600 83° East 475 547 32,900  Level FlightAware ADS-B
Tue 05:24:42 PM 48.7770 21.7820 83° East 475 547 32,900  Level FlightAware ADS-B
Tue 05:25:22 PM 48.7880 21.9140 83° East 473 544 32,900  Level FlightAware ADS-B
Tue 05:26:07 PM 48.8000 22.0650 83° East 472 543 32,900  Level FlightAware ADS-B
Tue 05:26:47 PM 48.8100 22.1960 83° East 473 544 32,900  Level FlightAware ADS-B
Tue 05:27:27 PM 48.8210 22.3310 83° East 473 544 32,900  Level FlightAware ADS-B
Tue 05:28:12 PM 48.8270 22.4800 86° East 473 544 32,900  Level FlightAware ADS-B
Tue 05:28:52 PM 48.8320 22.6120 87° East 472 543 32,900  Level FlightAware ADS-B
Tue 05:29:32 PM 48.8360 22.7440 87° East 473 544 32,900  Level FlightAware ADS-B
Tue 05:30:17 PM 48.8410 22.8930 87° East 472 543 32,900  Level FlightAware ADS-B
Tue 05:30:57 PM 48.8450 23.0250 87° East 472 543 32,900  Level FlightAware ADS-B
Tue 05:31:42 PM 48.8500 23.1700 87° East 472 543 32,900  Level FlightAware ADS-B
Tue 05:32:22 PM 48.8540 23.3060 87° East 472 543 32,900  Level FlightAware ADS-B
Tue 05:33:02 PM 48.8570 23.4340 88° East 472 543 32,900  Level FlightAware ADS-B
Tue 05:33:47 PM 48.8610 23.5830 88° East 471 542 32,900  Level FlightAware ADS-B
Tue 05:34:27 PM 48.8640 23.7150 88° East 471 542 32,900 71 Level FlightAware ADS-B
Tue 05:35:12 PM 48.8680 23.8700 88° East 470 541 33,000  Climbing FlightAware ADS-B
Tue 05:35:52 PM 48.8710 24.0010 88° East 469 540 32,900 -75 Descending FlightAware ADS-B
Tue 05:36:32 PM 48.8740 24.1190 88° East 468 539 32,900  Level FlightAware ADS-B
Tue 05:37:17 PM 48.8770 24.2760 88° East 469 540 32,900  Level FlightAware ADS-B
Tue 05:37:57 PM 48.8790 24.4080 89° East 470 541 32,900  Level FlightAware ADS-B
Tue 05:38:42 PM 48.8820 24.5520 88° East 469 540 32,900  Level FlightAware ADS-B
Tue 05:39:22 PM 48.8840 24.6840 89° East 469 540 32,900  Level FlightAware ADS-B
Tue 05:40:02 PM 48.8880 24.8180 87° East 467 537 32,900  Level FlightAware ADS-B
Tue 05:40:47 PM 48.8930 24.9590 87° East 467 537 32,900  Level FlightAware ADS-B
Tue 05:41:27 PM 48.8980 25.0860 87° East 466 536 32,900  Level FlightAware ADS-B
Tue 05:42:07 PM 48.9020 25.2130 87° East 466 536 32,900  Level FlightAware ADS-B
Tue 05:42:52 PM 48.9060 25.3570 88° East 466 536 32,900  Level FlightAware ADS-B
Tue 05:43:32 PM 48.9100 25.4910 87° East 466 536 32,900  Level FlightAware ADS-B
Tue 05:44:17 PM 48.9150 25.6410 87° East 467 537 32,900 71 Level FlightAware ADS-B
Tue 05:44:57 PM 48.9200 25.7720 87° East 462 532 33,000  Climbing FlightAware ADS-B
Tue 05:45:37 PM 48.9240 25.8910 87° East 464 534 32,900 -71 Descending FlightAware ADS-B
Tue 05:46:22 PM 48.9290 26.0420 87° East 466 536 32,900 450 Level FlightAware ADS-B
Tue 05:46:57 PM 48.9330 26.1560 87° East 463 533 33,500 1,059 Climbing FlightAware ADS-B
Tue 05:47:47 PM 48.9380 26.3200 87° East 460 529 34,400 933 Climbing FlightAware ADS-B
Tue 05:48:27 PM 48.9420 26.4460 87° East 460 529 34,900 353 Climbing FlightAware ADS-B
Tue 05:49:12 PM 48.9460 26.5910 88° East 457 526 34,900  Level FlightAware ADS-B
Tue 05:49:47 PM 48.9500 26.7090 87° East 455 524 34,900  Level FlightAware ADS-B
Tue 05:50:32 PM 48.9530 26.8370 88° East 456 525 34,900  Level FlightAware ADS-B
Tue 05:51:12 PM 48.9560 26.9750 88° East 458 527 34,900  Level FlightAware ADS-B
Tue 05:52:02 PM 48.9590 27.1210 88° East 459 528 34,900  Level FlightAware ADS-B
Tue 05:52:32 PM 48.9600 27.2360 89° East 461 531 34,900  Level FlightAware ADS-B
Tue 05:53:22 PM 48.9630 27.3970 88° East 458 527 34,900  Level FlightAware ADS-B
Tue 05:54:07 PM 48.9660 27.5380 88° East 456 525 34,900  Level FlightAware ADS-B
Tue 05:54:47 PM 48.9680 27.6760 89° East 457 526 34,900  Level FlightAware ADS-B
Tue 05:55:32 PM 48.9700 27.8170 89° East 457 526 34,900  Level FlightAware ADS-B
Tue 05:56:07 PM 48.9700 27.9330 90° East 460 529 34,900  Level FlightAware ADS-B
Tue 05:56:47 PM 48.9700 28.0390 90° East 460 529 34,900  Level FlightAware ADS-B
Tue 05:57:27 PM 48.9700 28.1720 90° East 460 529 34,900  Level FlightAware ADS-B
Tue 05:58:12 PM 48.9700 28.3180 90° East 460 529 34,900  Level FlightAware ADS-B
Tue 05:59:12 PM 48.9680 28.5290 91° East 459 528 34,900  Level FlightAware ADS-B
Tue 05:59:57 PM 48.9680 28.6770 90° East 459 528 34,900  Level FlightAware ADS-B
Tue 06:00:37 PM 48.9670 28.8030 91° East 461 531 34,900  Level FlightAware ADS-B
Tue 06:01:07 PM 48.9610 28.9000 95° East 468 539 34,900  Level FlightAware ADS-B
Tue 06:01:47 PM 48.9470 29.0340 99° East 469 540 34,900  Level FlightAware ADS-B
Tue 06:02:32 PM 48.9330 29.1770 98° East 468 539 34,900  Level FlightAware ADS-B
Tue 06:03:12 PM 48.9190 29.3060 99° East 468 539 34,900  Level FlightAware ADS-B
Tue 06:03:52 PM 48.9050 29.4400 99° East 469 540 34,900  Level FlightAware ADS-B
Tue 06:04:37 PM 48.8900 29.5820 99° East 467 537 34,900  Level FlightAware ADS-B
Tue 06:05:17 PM 48.8760 29.7120 99° East 468 539 34,900  Level FlightAware ADS-B
Tue 06:05:57 PM 48.8620 29.8410 99° East 469 540 34,900  Level FlightAware ADS-B
Tue 06:06:42 PM 48.8450 29.9940 100° East 469 540 34,900  Level FlightAware ADS-B
Tue 06:07:27 PM 48.8290 30.1360 100° East 471 542 34,900  Level FlightAware ADS-B
Tue 06:08:07 PM 48.8140 30.2700 100° East 471 542 34,900  Level FlightAware ADS-B
Tue 06:08:47 PM 48.7990 30.4000 100° East 473 544 34,900 71 Level FlightAware ADS-B
Tue 06:09:32 PM 48.7830 30.5430 100° East 472 543 35,000  Climbing FlightAware ADS-B
Tue 06:10:12 PM 48.7680 30.6740 100° East 476 548 34,900 -75 Descending FlightAware ADS-B
Tue 06:10:52 PM 48.7520 30.8080 100° East 480 552 34,900 71 Level FlightAware ADS-B
Tue 06:11:37 PM 48.7340 30.9570 100° East 479 551 35,000  Climbing FlightAware ADS-B
Tue 06:12:17 PM 48.7180 31.0890 100° East 479 551 34,900 -71 Descending FlightAware ADS-B
Tue 06:13:02 PM 48.7000 31.2380 100° East 483 556 34,900  Level FlightAware ADS-B
Tue 06:13:42 PM 48.6840 31.3700 100° East 484 557 34,900  Level FlightAware ADS-B
Tue 06:14:22 PM 48.6670 31.5030 101° East 483 556 34,900 71 Level FlightAware ADS-B
Tue 06:15:07 PM 48.6480 31.6520 101° East 483 556 35,000 71 Climbing FlightAware ADS-B
Tue 06:15:47 PM 48.6320 31.7840 100° East 483 556 35,000 -75 Level FlightAware ADS-B
Tue 06:16:27 PM 48.6150 31.9170 101° East 484 557 34,900 -71 Descending FlightAware ADS-B
Tue 06:17:12 PM 48.5950 32.0690 101° East 485 558 34,900 71 Level FlightAware ADS-B
Tue 06:17:52 PM 48.5780 32.1990 101° East 487 560 35,000 71 Climbing FlightAware ADS-B
Tue 06:18:37 PM 48.5580 32.3490 101° East 487 560 35,000  Level FlightAware ADS-B
Tue 06:19:17 PM 48.5400 32.4850 101° East 486 559 35,000 -71 Level FlightAware ADS-B
Tue 06:20:02 PM 48.5200 32.6350 101° East 488 562 34,900  Descending FlightAware ADS-B
Tue 06:20:42 PM 48.5020 32.7640 102° East 489 563 35,000  Climbing FlightAware ADS-B
Tue 06:21:22 PM 48.4830 32.8970 102° East 489 563 34,900 -71 Descending FlightAware ADS-B
Tue 06:22:07 PM 48.4630 33.0410 102° East 490 564 34,900  Level FlightAware ADS-B
Tue 06:23:27 PM 48.4250 33.3100 102° East 489 563 34,900  Level FlightAware ADS-B
Tue 06:24:12 PM 48.4050 33.4490 102° East 487 560 34,900 24 Level FlightAware ADS-B
Tue 06:26:00 PM 48.4380 33.7838 81° East  Level Estimated
Tue 06:27:00 PM 48.4558 33.9700 82° East  Level Estimated
Tue 06:27:42 PM 48.3010 34.1510 82° East 490 564 35,000  Level FlightAware ADS-B
Tue 06:28:22 PM 48.2800 34.2900 103° East 489 563 34,900 -55 Descending FlightAware ADS-B
Tue 06:29:32 PM 48.2450 34.5150 103° East 491 565 34,900 55 Level FlightAware ADS-B
Tue 06:30:12 PM 48.2230 34.6530 103° East 488 562 35,000  Climbing FlightAware ADS-B
Tue 06:30:52 PM 48.2040 34.7780 103° East 491 565 34,900  Descending FlightAware ADS-B
Tue 06:32:07 PM 48.1720 34.9760 104° East 490 564 35,000  Climbing FlightAware ADS-B
Tue 06:32:47 PM 48.1510 35.1080 103° East 491 565 34,900  Descending FlightAware ADS-B
Tue 06:33:32 PM 48.1280 35.2520 103° East 488 562 35,000  Climbing FlightAware ADS-B
Tue 06:34:12 PM 48.1060 35.3830 104° East 489 563 34,900 -71 Descending FlightAware ADS-B
Tue 06:34:57 PM 48.0790 35.5480 104° East 491 565 34,900 71 Level FlightAware ADS-B
Tue 06:35:37 PM 48.0620 35.6560 103° East 489 563 35,000  Climbing FlightAware ADS-B
Tue 06:36:12 PM 48.0390 35.7900 104° East 490 564 34,900 -71 Descending FlightAware ADS-B
Tue 06:37:02 PM 48.0140 35.9340 104° East 491 565 34,900  Level FlightAware ADS-B
Tue 06:37:42 PM 47.9930 36.0630 104° East 494 568 34,900 63 Level FlightAware ADS-B
Tue 06:38:37 PM 47.9570 36.2610 105° East 496 571 35,000  Climbing FlightAware ADS-B
Tue 06:39:17 PM 47.9280 36.4010 107° East 495 570 34,900 -75 Descending FlightAware ADS-B
Tue 06:39:57 PM 47.9020 36.5210 108° East 498 573 34,900 67 Level FlightAware ADS-B
Tue 06:40:47 PM 47.8670 36.6840 108° East 495 570 35,000  Climbing FlightAware ADS-B
Tue 06:41:27 PM 47.8390 36.8120 108° East 490 564 34,900 -75 Descending FlightAware ADS-B
Tue 06:42:07 PM 47.8140 36.9310 107° East 489 563 34,900  Level FlightAware ADS-B
Tue 06:42:47 PM 47.7840 37.0680 108° East 488 562 34,900  Level FlightAware ADS-B
Tue 06:43:27 PM 47.7540 37.2010 109° East 485 558 34,900  Level FlightAware ADS-B
Tue 06:44:12 PM 47.7300 37.3340 105° East 481 554 34,900  Level FlightAware ADS-B
Tue 06:44:57 PM 47.7040 37.4820 105° East 484 557 34,900  Level FlightAware ADS-B
Tue 06:45:32 PM 47.6830 37.6040 104° East 482 555 34,900  Level FlightAware ADS-B
Tue 06:46:17 PM 47.6610 37.7280 105° East 482 555 34,900 67 Level FlightAware ADS-B
Tue 06:47:02 PM 47.6290 37.9070 105° East 485 558 35,000  Climbing FlightAware ADS-B
Tue 06:47:42 PM 47.6060 38.0350 105° East 487 560 34,900 -75 Descending FlightAware ADS-B
Tue 06:48:22 PM 47.5820 38.1680 105° East 489 563 34,900  Level FlightAware ADS-B
Tue 06:49:02 PM 47.5580 38.2970 105° East 488 562 34,900  Level FlightAware ADS-B
Tue 06:49:47 PM 47.5300 38.4410 106° East 488 562 34,900  Level FlightAware ADS-B
Tue 06:50:27 PM 47.5050 38.5690 106° East 489 563 34,900  Level FlightAware ADS-B
Tue 06:51:12 PM 47.4770 38.7120 106° East 483 556 34,900  Level FlightAware ADS-B
Tue 06:51:52 PM 47.4520 38.8380 106° East 482 555 34,900  Level FlightAware ADS-B
Tue 06:52:32 PM 47.4250 38.9710 107° East 487 560 34,900  Level FlightAware ADS-B
Tue 06:53:12 PM 47.3980 39.1020 107° East 489 563 34,900  Level FlightAware ADS-B
Tue 06:54:02 PM 47.3680 39.2510 107° East 484 557 34,900  Level FlightAware ADS-B
Tue 06:55:12 PM 47.3250 39.4650 106° East 481 554 34,900  Level FlightAware ADS-B
Tue 06:55:52 PM 47.2960 39.6040 107° East 472 543 34,900  Level FlightAware ADS-B
Tue 06:56:32 PM 47.2700 39.7300 107° East 473 544 34,900  Level FlightAware ADS-B
Tue 06:57:12 PM 47.2440 39.8540 107° East 480 552 34,900  Level FlightAware ADS-B
Tue 06:58:02 PM 47.2150 39.9980 106° East 483 556 34,900  Level FlightAware ADS-B
Tue 06:58:42 PM 47.1910 40.1210 106° East 484 557 34,900  Level FlightAware ADS-B
Tue 06:59:17 PM 47.1670 40.2370 107° East 482 555 34,900  Level FlightAware ADS-B
Tue 07:00:07 PM 47.1370 40.3910 106° East 482 555 34,900  Level FlightAware ADS-B
Tue 07:00:47 PM 47.1130 40.5030 107° East 480 552 34,900  Level FlightAware ADS-B
Tue 07:01:32 PM 47.0800 40.6570 107° East 478 550 34,900  Level FlightAware ADS-B
Tue 07:02:22 PM 47.0530 40.7830 107° East 476 548 34,900  Level FlightAware ADS-B
Tue 07:03:07 PM 47.0180 40.9390 108° East 475 547 34,900  Level FlightAware ADS-B
Tue 07:03:52 PM 46.9930 41.0600 107° East 475 547 34,900  Level FlightAware ADS-B
Tue 07:04:47 PM 46.9490 41.2530 108° East 473 544 34,900  Level FlightAware ADS-B
Tue 07:05:22 PM 46.9270 41.3490 109° East 470 541 34,900  Level FlightAware ADS-B
Tue 07:06:07 PM 46.9000 41.4720 108° East 470 541 34,900  Level FlightAware ADS-B
Tue 07:06:47 PM 46.8770 41.5750 108° East 470 541 34,900  Level FlightAware ADS-B
Tue 07:07:32 PM 46.8360 41.7560 108° East 462 532 34,900  Level FlightAware ADS-B
Tue 07:08:17 PM 46.8050 41.8890 109° East 462 532 34,900  Level FlightAware ADS-B
Tue 07:08:57 PM 46.7800 41.9980 108° East 464 534 34,900  Level FlightAware ADS-B
Tue 07:09:32 PM 46.9640 41.1860 289° West 462 532 34,900  Level FlightAware ADS-B
Tue 07:10:22 PM 46.7180 42.2620 108° East 468 539 34,900  Level FlightAware ADS-B
Tue 07:11:17 PM 46.6800 42.4260 109° East 469 540 34,900  Level FlightAware ADS-B
Tue 07:12:02 PM 46.6480 42.5600 109° East 472 543 34,900  Level FlightAware ADS-B
Tue 07:12:42 PM 46.6200 42.6780 109° East 477 549 34,900  Level FlightAware ADS-B
Tue 07:13:17 PM 46.5970 42.7750 109° East 480 552 34,900  Level FlightAware ADS-B
Tue 07:14:02 PM 46.5640 42.9170 109° East 479 551 34,900  Level FlightAware ADS-B
Tue 07:14:47 PM 46.5310 43.0510 110° East 482 555 34,900  Level FlightAware ADS-B
Tue 07:15:42 PM 46.4900 43.2220 109° East 481 554 34,900  Level FlightAware ADS-B
Tue 07:16:27 PM 46.4550 43.3640 110° East 481 554 34,900  Level FlightAware ADS-B
Tue 07:17:22 PM 46.4180 43.5150 110° East 477 549 34,900  Level FlightAware ADS-B
Tue 07:18:02 PM 46.3870 43.6380 110° East 478 550 34,900  Level FlightAware ADS-B
Tue 07:18:42 PM 46.3570 43.7580 110° East 478 550 34,900  Level FlightAware ADS-B
Tue 07:19:27 PM 46.3200 43.9080 110° East 477 549 34,900  Level FlightAware ADS-B
Tue 07:20:12 PM 46.2870 44.0400 110° East 478 550 34,900  Level FlightAware ADS-B
Tue 07:20:52 PM 46.2560 44.1630 110° East 481 554 34,900  Level FlightAware ADS-B
Tue 07:21:32 PM 46.2260 44.2800 110° East 479 551 34,900  Level FlightAware ADS-B
Tue 07:22:17 PM 46.1900 44.4170 111° Southeast 479 551 34,900  Level FlightAware ADS-B
Tue 07:22:57 PM 46.1600 44.5340 110° East 478 550 34,900  Level FlightAware ADS-B
Tue 07:23:42 PM 46.1250 44.6710 110° East 480 552 34,900  Level FlightAware ADS-B
Tue 07:24:22 PM 46.0950 44.7840 111° Southeast 477 549 34,900  Level FlightAware ADS-B
Tue 07:25:02 PM 46.0640 44.9040 110° East 483 556 34,900  Level FlightAware ADS-B
Tue 07:25:42 PM 46.0370 45.0230 108° East 482 555 34,900  Level FlightAware ADS-B
Tue 07:26:27 PM 46.0180 45.1720 100° East 477 549 34,900  Level FlightAware ADS-B
Tue 07:27:12 PM 46.0140 45.2990 93° East 477 549 34,900  Level FlightAware ADS-B
Tue 07:27:57 PM 46.0560 45.4520 68° East 477 549 34,900  Level FlightAware ADS-B
Tue 07:28:32 PM 46.0650 45.5480 82° East 477 549 34,900  Level FlightAware ADS-B
Tue 07:29:17 PM 46.0790 45.6910 82° East 477 549 34,900  Level FlightAware ADS-B
Tue 07:29:57 PM 46.0920 45.8300 82° East 476 548 34,900  Level FlightAware ADS-B
Tue 07:30:37 PM 46.1040 45.9600 82° East 473 544 34,900  Level FlightAware ADS-B
Tue 07:31:22 PM 46.1160 46.0920 82° East 472 543 34,900  Level FlightAware ADS-B
Tue 07:32:02 PM 46.1290 46.2240 82° East 471 542 34,900  Level FlightAware ADS-B
Tue 07:32:42 PM 46.1390 46.3400 83° East 471 542 34,900  Level FlightAware ADS-B
Tue 07:33:32 PM 46.1530 46.4940 82° East 472 543 34,900  Level FlightAware ADS-B
Tue 07:34:07 PM 46.1620 46.6060 83° East 472 543 34,900  Level FlightAware ADS-B
Tue 07:34:52 PM 46.1740 46.7410 83° East 473 544 34,900  Level FlightAware ADS-B
Tue 07:35:32 PM 46.1850 46.8750 83° East 472 543 34,900  Level FlightAware ADS-B
Tue 07:36:17 PM 46.1960 47.0040 83° East 475 547 34,900  Level FlightAware ADS-B
Tue 07:37:02 PM 46.2080 47.1460 83° East 475 547 34,900  Level FlightAware ADS-B
Tue 07:37:37 PM 46.2180 47.2620 83° East 474 545 34,900  Level FlightAware ADS-B
Tue 07:38:27 PM 46.2300 47.4170 84° East 475 547 34,900  Level FlightAware ADS-B
Tue 07:39:02 PM 46.2380 47.5170 83° East 476 548 34,900  Level FlightAware ADS-B
Tue 07:39:57 PM 46.2530 47.6970 83° East 473 544 34,900  Level FlightAware ADS-B
Tue 07:40:47 PM 46.2640 47.8500 84° East 472 543 34,900  Level FlightAware ADS-B
Tue 07:41:57 PM 46.2810 48.0690 84° East 475 547 34,900  Level FlightAware ADS-B
Tue 07:42:27 PM 46.2880 48.1700 84° East 474 545 34,900  Level FlightAware ADS-B
Tue 07:43:17 PM 46.2980 48.3140 84° East 470 541 34,900  Level FlightAware ADS-B
Tue 07:43:57 PM 46.3080 48.4510 84° East 470 541 34,900  Level FlightAware ADS-B
Tue 07:44:32 PM 46.3150 48.5480 84° East 469 540 34,900  Level FlightAware ADS-B
Tue 07:45:27 PM 46.3270 48.7230 84° East 470 541 34,900  Level FlightAware ADS-B
Tue 07:46:07 PM 46.3360 48.8570 84° East 470 541 34,900  Level FlightAware ADS-B
Tue 07:46:47 PM 46.3440 48.9760 84° East 469 540 34,900  Level FlightAware ADS-B
Tue 07:47:27 PM 46.3530 49.1000 84° East 472 543 34,900  Level FlightAware ADS-B
Tue 07:48:02 PM 46.3710 49.2110 77° East 472 543 34,900  Level FlightAware ADS-B
Tue 07:48:57 PM 46.4130 49.3700 69° East 471 542 34,900  Level FlightAware ADS-B
Tue 07:49:32 PM 46.4460 49.4760 66° East 471 542 34,900  Level FlightAware ADS-B
Tue 07:50:17 PM 46.4770 49.6090 71° East 466 536 34,900  Level FlightAware ADS-B
Tue 07:50:57 PM 46.4960 49.7280 77° East 468 539 34,900  Level FlightAware ADS-B
Tue 07:51:32 PM 46.5120 49.8310 77° East 465 535 34,900  Level FlightAware ADS-B
Tue 07:52:17 PM 46.5340 49.9680 77° East 467 537 34,900  Level FlightAware ADS-B
Tue 07:53:17 PM 46.5630 50.1550 77° East 470 541 34,900  Level FlightAware ADS-B
Tue 07:53:52 PM 46.5800 50.2630 77° East 469 540 34,900  Level FlightAware ADS-B
Tue 07:55:07 PM 46.6150 50.4920 77° East 467 537 34,900  Level FlightAware ADS-B
Tue 07:56:12 PM 46.6440 50.6860 78° East 471 542 34,900  Level FlightAware ADS-B
Tue 07:57:17 PM 46.6630 50.8020 77° East 471 542 34,900  Level FlightAware ADS-B
Tue 07:57:57 PM 46.6920 51.0090 78° East 466 536 34,900  Level FlightAware ADS-B
Tue 07:58:32 PM 46.7090 51.1230 78° East 467 537 34,900  Level FlightAware ADS-B
Tue 07:59:32 PM 46.7180 51.1880 79° East 468 539 34,900  Level FlightAware ADS-B
Tue 08:00:27 PM 46.7200 51.1990 75° East 469 540 34,900  Level FlightAware ADS-B
Tue 08:01:17 PM 46.7390 51.3310 78° East 469 540 34,900 15 Level FlightAware ADS-B
Tue 08:03:00 PM 46.7255 51.6429 93° East  Level Estimated
Tue 08:03:12 PM 46.7910 51.7040 93° East 34,900  Level FlightAware ADS-B
Tue 08:05:00 PM 46.7756 52.0312 94° East  Level Estimated
Tue 08:06:00 PM 46.7667 52.2130 94° East  Level Estimated
Tue 08:07:00 PM 46.7574 52.3946 94° East  Level Estimated
Tue 08:08:00 PM 46.7479 52.5762 94° East  Level Estimated
Tue 08:09:00 PM 46.7381 52.7577 94° East  Level Estimated
Tue 08:10:00 PM 46.7280 52.9392 95° East  Level Estimated
Tue 08:11:00 PM 46.7176 53.1206 95° East  Level Estimated
Tue 08:12:00 PM 46.7069 53.3019 95° East  Level Estimated
Tue 08:13:00 PM 46.6960 53.4832 95° East  Level Estimated
Tue 08:14:00 PM 46.6847 53.6643 95° East  Level Estimated
Tue 08:15:00 PM 46.6732 53.8454 95° East  Level Estimated
Tue 08:16:00 PM 46.6614 54.0264 95° East  Level Estimated
Tue 08:17:00 PM 46.6493 54.2074 95° East  Level Estimated
Tue 08:18:00 PM 46.6369 54.3882 96° East  Level Estimated
Tue 08:19:00 PM 46.6242 54.5690 96° East  Level Estimated
Tue 08:20:00 PM 46.6113 54.7497 96° East  Level Estimated
Tue 08:21:00 PM 46.5980 54.9303 96° East  Level Estimated
Tue 08:22:00 PM 46.5845 55.1108 96° East  Level Estimated
Tue 08:23:00 PM 46.5707 55.2912 96° East  Level Estimated
Tue 08:24:00 PM 46.5566 55.4716 96° East  Level Estimated
Tue 08:25:00 PM 46.5422 55.6518 97° East  Level Estimated
Tue 08:26:00 PM 46.5276 55.8319 97° East  Level Estimated
Tue 08:27:00 PM 46.5126 56.0120 97° East  Level Estimated
Tue 08:28:00 PM 46.4974 56.1919 97° East  Level Estimated
Tue 08:29:00 PM 46.4819 56.3717 97° East  Level Estimated
Tue 08:30:00 PM 46.4661 56.5515 97° East  Level Estimated
Tue 08:31:00 PM 46.4501 56.7311 97° East  Level Estimated
Tue 08:32:00 PM 46.4337 56.9106 97° East  Level Estimated
Tue 08:33:00 PM 46.4171 57.0900 98° East  Level Estimated
Tue 08:34:00 PM 46.4002 57.2693 98° East  Level Estimated
Tue 08:35:00 PM 46.3830 57.4485 98° East  Level Estimated
Tue 08:36:00 PM 46.3655 57.6276 98° East  Level Estimated
Tue 08:37:00 PM 46.3478 57.8066 98° East  Level Estimated
Tue 08:38:00 PM 46.3297 57.9854 98° East  Level Estimated
Tue 08:39:00 PM 46.3114 58.1641 98° East  Level Estimated
Tue 08:40:00 PM 46.2928 58.3427 99° East  Level Estimated
Tue 08:41:00 PM 46.2740 58.5212 99° East  Level Estimated
Tue 08:42:00 PM 46.2548 58.6996 99° East  Level Estimated
Tue 08:43:00 PM 46.2354 58.8778 99° East  Level Estimated
Tue 08:44:00 PM 46.2157 59.0559 99° East  Level Estimated
Tue 08:45:00 PM 46.1958 59.2339 99° East  Level Estimated
Tue 08:46:00 PM 46.1755 59.4117 99° East  Level Estimated
Tue 08:47:00 PM 46.1550 59.5894 99° East  Level Estimated
Tue 08:48:00 PM 46.1342 59.7670 100° East  Level Estimated
Tue 08:49:00 PM 46.1131 59.9445 100° East  Level Estimated
Tue 08:50:00 PM 46.0918 60.1218 100° East  Level Estimated
Tue 08:51:00 PM 46.0701 60.2990 100° East  Level Estimated
Tue 08:52:00 PM 46.0483 60.4760 100° East  Level Estimated
Tue 08:53:00 PM 46.0261 60.6529 100° East  Level Estimated
Tue 08:54:00 PM 46.0037 60.8296 100° East  Level Estimated
Tue 08:55:00 PM 45.9809 61.0062 100° East  Level Estimated
Tue 08:56:00 PM 45.9580 61.1827 101° East  Level Estimated
Tue 08:57:00 PM 45.9347 61.3590 101° East  Level Estimated
Tue 08:58:00 PM 45.9112 61.5351 101° East  Level Estimated
Tue 08:59:00 PM 45.8874 61.7112 101° East  Level Estimated
Tue 09:00:00 PM 45.8633 61.8870 101° East  Level Estimated
Tue 09:01:00 PM 45.8390 62.0627 101° East  Level Estimated
Tue 09:02:00 PM 45.8144 62.2383 101° East  Level Estimated
Tue 09:03:00 PM 45.7895 62.4137 101° East  Level Estimated
Tue 09:04:00 PM 45.7644 62.5889 102° East  Level Estimated
Tue 09:05:00 PM 45.7389 62.7640 102° East  Level Estimated
Tue 09:06:00 PM 45.7133 62.9389 102° East  Level Estimated
Tue 09:07:00 PM 45.6873 63.1137 102° East  Level Estimated
Tue 09:08:00 PM 45.6611 63.2883 102° East  Level Estimated
Tue 09:09:00 PM 45.6347 63.4627 102° East  Level Estimated
Tue 09:10:00 PM 45.6079 63.6370 102° East  Level Estimated
Tue 09:11:00 PM 45.5809 63.8111 102° East  Level Estimated
Tue 09:12:00 PM 45.5536 63.9850 103° East  Level Estimated
Tue 09:13:00 PM 45.5261 64.1588 103° East  Level Estimated
Tue 09:14:00 PM 45.4983 64.3324 103° East  Level Estimated
Tue 09:15:00 PM 45.4702 64.5058 103° East  Level Estimated
Tue 09:16:00 PM 45.4419 64.6790 103° East  Level Estimated
Tue 09:17:00 PM 45.4133 64.8521 103° East  Level Estimated
Tue 09:18:00 PM 45.3845 65.0250 103° East  Level Estimated
Tue 09:19:00 PM 45.3554 65.1977 103° East  Level Estimated
Tue 09:20:00 PM 45.3260 65.3703 104° East  Level Estimated
Tue 09:21:00 PM 45.2964 65.5426 104° East  Level Estimated
Tue 09:22:00 PM 45.2665 65.7148 104° East  Level Estimated
Tue 09:23:00 PM 45.2364 65.8868 104° East  Level Estimated
Tue 09:24:00 PM 45.2060 66.0586 104° East  Level Estimated
Tue 09:25:00 PM 45.1754 66.2302 104° East  Level Estimated
Tue 09:26:00 PM 45.1444 66.4017 104° East  Level Estimated
Tue 09:27:00 PM 45.1133 66.5730 104° East  Level Estimated
Tue 09:28:00 PM 45.0818 66.7440 105° East  Level Estimated
Tue 09:29:00 PM 45.0502 66.9149 105° East  Level Estimated
Tue 09:30:00 PM 45.0182 67.0856 105° East  Level Estimated
Tue 09:31:00 PM 44.9860 67.2561 105° East  Level Estimated
Tue 09:32:00 PM 44.9536 67.4264 105° East  Level Estimated
Tue 09:33:00 PM 44.9209 67.5965 105° East  Level Estimated
Tue 09:34:00 PM 44.8880 67.7664 105° East  Level Estimated
Tue 09:35:00 PM 44.8548 67.9362 105° East  Level Estimated
Tue 09:36:00 PM 44.8213 68.1057 105° East  Level Estimated
Tue 09:37:00 PM 44.7876 68.2750 106° East  Level Estimated
Tue 09:38:00 PM 44.7537 68.4442 106° East  Level Estimated
Tue 09:39:00 PM 44.7195 68.6131 106° East  Level Estimated
Tue 09:40:00 PM 44.6850 68.7818 106° East  Level Estimated
Tue 09:41:00 PM 44.6503 68.9503 106° East  Level Estimated
Tue 09:42:00 PM 44.6154 69.1187 106° East  Level Estimated
Tue 09:43:00 PM 44.5802 69.2868 106° East  Level Estimated
Tue 09:44:00 PM 44.5448 69.4547 106° East  Level Estimated
Tue 09:45:00 PM 44.5091 69.6225 107° East  Level Estimated
Tue 09:46:00 PM 44.4731 69.7900 107° East  Level Estimated
Tue 09:47:00 PM 44.4370 69.9573 107° East  Level Estimated
Tue 09:48:00 PM 44.4006 70.1244 107° East  Level Estimated
Tue 09:49:00 PM 44.3639 70.2913 107° East  Level Estimated
Tue 09:50:00 PM 44.3270 70.4579 107° East  Level Estimated
Tue 09:51:00 PM 44.2898 70.6244 107° East  Level Estimated
Tue 09:52:00 PM 44.2525 70.7907 107° East  Level Estimated
Tue 09:53:00 PM 44.2148 70.9567 107° East  Level Estimated
Tue 09:54:00 PM 44.1770 71.1226 108° East  Level Estimated
Tue 09:55:00 PM 44.1389 71.2882 108° East  Level Estimated
Tue 09:56:00 PM 44.1005 71.4536 108° East  Level Estimated
Tue 09:57:00 PM 44.0619 71.6188 108° East  Level Estimated
Tue 09:58:00 PM 44.0231 71.7838 108° East  Level Estimated
Tue 09:59:00 PM 43.9840 71.9485 108° East  Level Estimated
Tue 10:00:00 PM 43.9448 72.1131 108° East  Level Estimated
Tue 10:01:00 PM 43.9052 72.2774 108° East  Level Estimated
Tue 10:02:00 PM 43.8655 72.4415 109° East  Level Estimated
Tue 10:03:00 PM 43.8255 72.6054 109° East  Level Estimated
Tue 10:04:00 PM 43.7852 72.7690 109° East  Level Estimated
Tue 10:05:00 PM 43.7448 72.9325 109° East  Level Estimated
Tue 10:06:00 PM 43.7040 73.0957 109° East  Level Estimated
Tue 10:07:00 PM 43.6631 73.2587 109° East  Level Estimated
Tue 10:08:00 PM 43.6220 73.4215 109° East  Level Estimated
Tue 10:09:00 PM 43.5806 73.5840 109° East  Level Estimated
Tue 10:10:00 PM 43.5390 73.7464 109° East  Level Estimated
Tue 10:11:00 PM 43.4971 73.9085 110° East  Level Estimated
Tue 10:12:00 PM 43.4550 74.0703 110° East  Level Estimated
Tue 10:13:00 PM 43.4127 74.2320 110° East  Level Estimated
Tue 10:14:00 PM 43.3702 74.3934 110° East  Level Estimated
Tue 10:15:00 PM 43.3274 74.5546 110° East  Level Estimated
Tue 10:15:57 PM 45.7910 77.1770 110° East 459 528 36,900  Level FlightAware ADS-B
Tue 10:16:00 PM 43.2844 74.7156 110° East  Level Estimated
Tue 10:16:37 PM 45.7390 77.2770 127° Southeast 459 528 36,900  Level FlightAware ADS-B
Tue 10:17:22 PM 45.6870 77.3770 127° Southeast 459 528 36,900  Level FlightAware ADS-B
Tue 10:18:02 PM 45.6310 77.4840 127° Southeast 461 531 36,900  Level FlightAware ADS-B
Tue 10:18:42 PM 45.5840 77.5740 127° Southeast 462 532 36,900  Level FlightAware ADS-B
Tue 10:19:42 PM 45.5040 77.7270 127° Southeast 458 527 36,900  Level FlightAware ADS-B
Tue 10:20:22 PM 45.4530 77.8240 127° Southeast 462 532 36,900  Level FlightAware ADS-B
Tue 10:21:07 PM 45.3960 77.9310 127° Southeast 466 536 36,900  Level FlightAware ADS-B
Tue 10:21:47 PM 45.3440 78.0290 127° Southeast 469 540 36,900  Level FlightAware ADS-B
Tue 10:22:27 PM 45.2900 78.1300 127° Southeast 472 543 36,900  Level FlightAware ADS-B
Tue 10:23:12 PM 45.2310 78.2400 127° Southeast 468 539 36,900  Level FlightAware ADS-B
Tue 10:23:52 PM 45.1790 78.3370 127° Southeast 466 536 36,900  Level FlightAware ADS-B
Tue 10:24:32 PM 45.1270 78.4340 127° Southeast 463 533 36,900  Level FlightAware ADS-B
Tue 10:25:17 PM 45.0610 78.5330 133° Southeast 464 534 36,900  Level FlightAware ADS-B
Tue 10:25:57 PM 45.0010 78.6210 134° Southeast 466 536 36,900  Level FlightAware ADS-B
Tue 10:26:42 PM 44.9340 78.7190 134° Southeast 465 535 36,900  Level FlightAware ADS-B
Tue 10:27:22 PM 44.8740 78.8060 134° Southeast 463 533 36,900  Level FlightAware ADS-B
Tue 10:28:07 PM 44.8080 78.9020 134° Southeast 461 531 36,900  Level FlightAware ADS-B
Tue 10:28:47 PM 44.7480 78.9880 134° Southeast 462 532 36,900  Level FlightAware ADS-B
Tue 10:29:27 PM 44.6890 79.0730 134° Southeast 462 532 36,900  Level FlightAware ADS-B
Tue 10:30:12 PM 44.6320 79.1570 134° Southeast 462 532 36,900  Level FlightAware ADS-B
Tue 10:31:07 PM 44.5380 79.2910 135° Southeast 466 536 36,900 67 Level FlightAware ADS-B
Tue 10:31:42 PM 44.4900 79.3590 135° Southeast 467 537 37,000 75 Climbing FlightAware ADS-B
Tue 10:32:27 PM 44.4310 79.4440 134° Southeast 467 537 37,000  Level FlightAware ADS-B
Tue 10:33:07 PM 44.3800 79.5180 134° Southeast 467 537 37,000  Level FlightAware ADS-B
Tue 10:33:47 PM 44.3290 79.5920 134° Southeast 467 537 37,000  Level FlightAware ADS-B
Tue 10:34:37 PM 44.2650 79.6840 134° Southeast 467 537 37,000  Level FlightAware ADS-B
Tue 10:35:17 PM 44.2140 79.7580 134° Southeast 467 537 37,000  Level FlightAware ADS-B
Tue 10:35:57 PM 44.1630 79.8320 134° Southeast 467 537 37,000  Level FlightAware ADS-B
Tue 10:36:37 PM 44.1120 79.9050 134° Southeast 467 537 37,000  Level FlightAware ADS-B
Tue 10:37:17 PM 44.0610 79.9790 134° Southeast 467 537 37,000  Level FlightAware ADS-B
Tue 10:38:07 PM 43.9970 80.0710 134° Southeast 467 537 37,000  Level FlightAware ADS-B
Tue 10:38:47 PM 43.9460 80.1440 134° Southeast 467 537 37,000  Level FlightAware ADS-B
Tue 10:39:27 PM 43.8950 80.2170 134° Southeast 467 537 37,000  Level FlightAware ADS-B
Tue 10:40:07 PM 43.8440 80.2910 134° Southeast 467 537 37,000  Level FlightAware ADS-B
Tue 10:40:47 PM 43.7930 80.3640 134° Southeast 467 537 37,000  Level FlightAware ADS-B
Tue 10:41:37 PM 43.7290 80.4550 134° Southeast 467 537 37,000 Level FlightAware ADS-B
Tue 10:44:00 PM 43.5937 80.8211 117° Southeast  Level Estimated
Tue 10:45:00 PM 43.5366 80.9742 117° Southeast  Level Estimated
Tue 10:46:00 PM 43.4792 81.1270 117° Southeast  Level Estimated
Tue 10:47:00 PM 43.4217 81.2795 117° Southeast  Level Estimated
Tue 10:48:00 PM 43.3640 81.4317 118° Southeast  Level Estimated
Tue 10:49:00 PM 43.3060 81.5837 118° Southeast  Level Estimated
Tue 10:50:00 PM 43.2479 81.7353 118° Southeast  Level Estimated
Tue 10:51:00 PM 43.1896 81.8867 118° Southeast  Level Estimated
Tue 10:52:00 PM 43.1310 82.0378 118° Southeast  Level Estimated
Tue 10:53:00 PM 43.0723 82.1885 118° Southeast  Level Estimated
Tue 10:54:00 PM 43.0134 82.3390 118° Southeast  Level Estimated
Tue 10:55:00 PM 42.9542 82.4892 118° Southeast  Level Estimated
Tue 10:56:00 PM 42.8949 82.6392 118° Southeast  Level Estimated
Tue 10:57:00 PM 42.8354 82.7888 118° Southeast  Level Estimated
Tue 10:58:00 PM 42.7757 82.9381 119° Southeast  Level Estimated
Tue 10:59:00 PM 42.7158 83.0872 119° Southeast  Level Estimated
Tue 11:00:00 PM 42.6557 83.2359 119° Southeast  Level Estimated
Tue 11:01:00 PM 42.5954 83.3844 119° Southeast  Level Estimated
Tue 11:02:00 PM 42.5349 83.5326 119° Southeast  Level Estimated
Tue 11:03:00 PM 42.4742 83.6805 119° Southeast  Level Estimated
Tue 11:04:00 PM 42.4134 83.8281 119° Southeast  Level Estimated
Tue 11:05:00 PM 42.3523 83.9754 119° Southeast  Level Estimated
Tue 11:06:00 PM 42.2911 84.1225 119° Southeast  Level Estimated
Tue 11:07:00 PM 42.2297 84.2692 119° Southeast  Level Estimated
Tue 11:08:00 PM 42.1680 84.4157 120° Southeast  Level Estimated
Tue 11:09:00 PM 42.1062 84.5619 120° Southeast  Level Estimated
Tue 11:10:00 PM 42.0443 84.7078 120° Southeast  Level Estimated
Tue 11:11:00 PM 41.9821 84.8534 120° Southeast  Level Estimated
Tue 11:12:00 PM 41.9197 84.9987 120° Southeast  Level Estimated
Tue 11:13:00 PM 41.8572 85.1438 120° Southeast  Level Estimated
Tue 11:14:00 PM 41.7945 85.2886 120° Southeast  Level Estimated
Tue 11:15:00 PM 41.7316 85.4330 120° Southeast  Level Estimated
Tue 11:16:00 PM 41.6685 85.5772 120° Southeast  Level Estimated
Tue 11:17:00 PM 41.6052 85.7211 120° Southeast  Level Estimated
Tue 11:18:00 PM 41.5418 85.8648 121° Southeast  Level Estimated
Tue 11:19:00 PM 41.4782 86.0081 121° Southeast  Level Estimated
Tue 11:20:00 PM 41.4144 86.1512 121° Southeast  Level Estimated
Tue 11:21:00 PM 41.3504 86.2940 121° Southeast  Level Estimated
Tue 11:22:00 PM 41.2863 86.4365 121° Southeast  Level Estimated
Tue 11:23:00 PM 41.2219 86.5787 121° Southeast  Level Estimated
Tue 11:24:00 PM 41.1574 86.7206 121° Southeast  Level Estimated
Tue 11:25:00 PM 41.0928 86.8623 121° Southeast  Level Estimated
Tue 11:26:00 PM 41.0279 87.0037 121° Southeast  Level Estimated
Tue 11:27:00 PM 40.9629 87.1448 121° Southeast  Level Estimated
Tue 11:28:00 PM 40.8977 87.2856 121° Southeast  Level Estimated
Tue 11:29:00 PM 40.8323 87.4262 122° Southeast  Level Estimated
Tue 11:30:00 PM 40.7668 87.5665 122° Southeast  Level Estimated
Tue 11:31:00 PM 40.7011 87.7065 122° Southeast  Level Estimated
Tue 11:32:00 PM 40.6352 87.8462 122° Southeast  Level Estimated
Tue 11:33:00 PM 40.5692 87.9856 122° Southeast  Level Estimated
Tue 11:34:00 PM 40.5030 88.1248 122° Southeast  Level Estimated
Tue 11:35:00 PM 40.4366 88.2637 122° Southeast  Level Estimated
Tue 11:36:00 PM 40.3701 88.4023 122° Southeast  Level Estimated
Tue 11:37:00 PM 40.3034 88.5407 122° Southeast  Level Estimated
Tue 11:38:00 PM 40.2365 88.6787 122° Southeast  Level Estimated
Tue 11:39:00 PM 40.1695 88.8165 122° Southeast  Level Estimated
Tue 11:40:00 PM 40.1023 88.9541 123° Southeast  Level Estimated
Tue 11:41:00 PM 40.0349 89.0913 123° Southeast  Level Estimated
Tue 11:42:00 PM 39.9674 89.2283 123° Southeast  Level Estimated
Tue 11:43:00 PM 39.8997 89.3650 123° Southeast  Level Estimated
Tue 11:44:00 PM 39.8319 89.5015 123° Southeast  Level Estimated
Tue 11:45:00 PM 39.7639 89.6377 123° Southeast  Level Estimated
Tue 11:46:00 PM 39.6957 89.7736 123° Southeast  Level Estimated
Tue 11:47:00 PM 39.6274 89.9092 123° Southeast  Level Estimated
Tue 11:48:00 PM 39.5589 90.0446 123° Southeast  Level Estimated
Tue 11:49:00 PM 39.4903 90.1797 123° Southeast  Level Estimated
Tue 11:50:00 PM 39.4215 90.3145 123° Southeast  Level Estimated
Tue 11:51:00 PM 39.3526 90.4491 123° Southeast  Level Estimated
Tue 11:52:00 PM 39.2835 90.5834 124° Southeast  Level Estimated
Tue 11:53:00 PM 39.2142 90.7175 124° Southeast  Level Estimated
Tue 11:54:00 PM 39.1448 90.8512 124° Southeast  Level Estimated
Tue 11:55:00 PM 39.0753 90.9847 124° Southeast  Level Estimated
Tue 11:56:00 PM 39.0056 91.1180 124° Southeast  Level Estimated
Tue 11:57:00 PM 38.9357 91.2510 124° Southeast  Level Estimated
Tue 11:58:00 PM 38.8657 91.3837 124° Southeast  Level Estimated
Tue 11:59:00 PM 38.7955 91.5162 124° Southeast  Level Estimated
Wed 12:00:00 AM 38.7252 91.6484 124° Southeast  Level Estimated
Wed 12:01:00 AM 38.6548 91.7803 124° Southeast  Level Estimated
Wed 12:02:00 AM 38.5841 91.9120 124° Southeast  Level Estimated
Wed 12:03:00 AM 38.5134 92.0434 125° Southeast  Level Estimated
Wed 12:04:00 AM 38.4425 92.1746 125° Southeast  Level Estimated
Wed 12:05:00 AM 38.3714 92.3055 125° Southeast  Level Estimated
Wed 12:06:00 AM 38.3003 92.4361 125° Southeast  Level Estimated
Wed 12:07:00 AM 38.2289 92.5665 125° Southeast  Level Estimated
Wed 12:08:00 AM 38.1575 92.6966 125° Southeast  Level Estimated
Wed 12:09:00 AM 38.0858 92.8265 125° Southeast  Level Estimated
Wed 12:10:00 AM 38.0141 92.9562 125° Southeast  Level Estimated
Wed 12:11:00 AM 37.9422 93.0855 125° Southeast  Level Estimated
Wed 12:12:00 AM 37.8701 93.2147 125° Southeast  Level Estimated
Wed 12:13:00 AM 37.7979 93.3435 125° Southeast  Level Estimated
Wed 12:14:00 AM 37.7256 93.4721 125° Southeast  Level Estimated
Wed 12:15:00 AM 37.6531 93.6005 125° Southeast  Level Estimated
Wed 12:16:00 AM 37.5805 93.7286 126° Southeast  Level Estimated
Wed 12:17:00 AM 37.5078 93.8565 126° Southeast  Level Estimated
Wed 12:18:00 AM 37.4349 93.9841 126° Southeast  Level Estimated
Wed 12:19:00 AM 37.3619 94.1115 126° Southeast  Level Estimated
Wed 12:20:00 AM 37.2887 94.2386 126° Southeast  Level Estimated
Wed 12:21:00 AM 37.2154 94.3655 126° Southeast  Level Estimated
Wed 12:22:00 AM 37.1420 94.4921 126° Southeast  Level Estimated
Wed 12:23:00 AM 37.0684 94.6185 126° Southeast  Level Estimated
Wed 12:24:00 AM 36.9947 94.7446 126° Southeast  Level Estimated
Wed 12:25:00 AM 36.9209 94.8705 126° Southeast  Level Estimated
Wed 12:26:00 AM 36.8469 94.9961 126° Southeast  Level Estimated
Wed 12:27:00 AM 36.7728 95.1216 126° Southeast  Level Estimated
Wed 12:28:00 AM 36.6986 95.2467 126° Southeast  Level Estimated
Wed 12:29:00 AM 36.6243 95.3716 127° Southeast  Level Estimated
Wed 12:30:00 AM 36.5498 95.4963 127° Southeast  Level Estimated
Wed 12:31:00 AM 36.4752 95.6208 127° Southeast  Level Estimated
Wed 12:32:00 AM 36.4004 95.7449 127° Southeast  Level Estimated
Wed 12:33:00 AM 36.3256 95.8689 127° Southeast  Level Estimated
Wed 12:34:00 AM 36.2505 95.9926 127° Southeast  Level Estimated
Wed 12:35:00 AM 36.1754 96.1161 127° Southeast  Level Estimated
Wed 12:36:00 AM 36.1002 96.2394 127° Southeast  Level Estimated
Wed 12:37:00 AM 36.0248 96.3624 127° Southeast  Level Estimated
Wed 12:38:00 AM 35.9493 96.4852 127° Southeast  Level Estimated
Wed 12:39:00 AM 35.8736 96.6077 127° Southeast  Level Estimated
Wed 12:40:00 AM 35.7979 96.7300 127° Southeast  Level Estimated
Wed 12:41:00 AM 35.7220 96.8521 127° Southeast  Level Estimated
Wed 12:42:00 AM 35.6460 96.9739 127° Southeast  Level Estimated
Wed 12:43:00 AM 35.5699 97.0955 128° Southeast  Level Estimated
Wed 12:44:00 AM 35.4936 97.2169 128° Southeast  Level Estimated
Wed 12:45:00 AM 35.4173 97.3381 128° Southeast  Level Estimated
Wed 12:46:00 AM 35.3408 97.4590 128° Southeast  Level Estimated
Wed 12:47:00 AM 35.2642 97.5797 128° Southeast  Level Estimated
Wed 12:48:00 AM 35.1875 97.7001 128° Southeast  Level Estimated
Wed 12:49:00 AM 35.1106 97.8204 128° Southeast  Level Estimated
Wed 12:50:00 AM 35.0336 97.9404 128° Southeast  Level Estimated
Wed 12:51:00 AM 34.9566 98.0601 128° Southeast  Level Estimated
Wed 12:52:00 AM 34.8794 98.1797 128° Southeast  Level Estimated
Wed 12:53:00 AM 34.8020 98.2990 128° Southeast  Level Estimated
Wed 12:54:00 AM 34.7246 98.4181 128° Southeast  Level Estimated
Wed 12:55:00 AM 34.6471 98.5370 128° Southeast  Level Estimated
Wed 12:56:00 AM 34.5694 98.6557 128° Southeast  Level Estimated
Wed 12:57:00 AM 34.4916 98.7741 129° Southeast  Level Estimated
Wed 12:58:00 AM 34.4137 98.8923 129° Southeast  Level Estimated
Wed 12:59:00 AM 34.3357 99.0103 129° Southeast  Level Estimated
Wed 01:00:00 AM 34.2576 99.1281 129° Southeast  Level Estimated
Wed 01:01:00 AM 34.1794 99.2457 129° Southeast  Level Estimated
Wed 01:02:00 AM 34.1010 99.3630 129° Southeast  Level Estimated
Wed 01:03:00 AM 34.0226 99.4801 129° Southeast  Level Estimated
Wed 01:04:00 AM 33.9440 99.5971 129° Southeast  Level Estimated
Wed 01:05:00 AM 33.8653 99.7138 129° Southeast  Level Estimated
Wed 01:06:00 AM 33.7865 99.8302 129° Southeast  Level Estimated
Wed 01:07:00 AM 33.7076 99.9465 129° Southeast  Level Estimated
Wed 01:08:00 AM 33.6287 100.0626 129° Southeast  Level Estimated
Wed 01:09:00 AM 33.5495 100.1784 129° Southeast  Level Estimated
Wed 01:10:00 AM 33.4703 100.2940 129° Southeast  Level Estimated
Wed 01:11:00 AM 33.3910 100.4094 129° Southeast  Level Estimated
Wed 01:12:00 AM 33.3116 100.5246 130° Southeast  Level Estimated
Wed 01:13:00 AM 33.2320 100.6396 130° Southeast  Level Estimated
Wed 01:14:00 AM 33.1524 100.7544 130° Southeast  Level Estimated
Wed 01:15:00 AM 33.0726 100.8690 130° Southeast  Level Estimated
Wed 01:16:00 AM 32.9928 100.9834 130° Southeast  Level Estimated
Wed 01:17:00 AM 32.9128 101.0975 130° Southeast  Level Estimated
Wed 01:18:00 AM 32.8328 101.2115 130° Southeast  Level Estimated
Wed 01:19:00 AM 32.7526 101.3252 130° Southeast  Level Estimated
Wed 01:20:00 AM 32.6723 101.4388 130° Southeast  Level Estimated
Wed 01:21:00 AM 32.5919 101.5521 130° Southeast  Level Estimated
Wed 01:22:00 AM 32.5115 101.6653 130° Southeast  Level Estimated
Wed 01:23:00 AM 32.4309 101.7782 130° Southeast  Level Estimated
Wed 01:24:00 AM 32.3502 101.8909 130° Southeast  Level Estimated
Wed 01:25:00 AM 32.2695 102.0035 130° Southeast  Level Estimated
Wed 01:26:00 AM 32.1886 102.1158 130° Southeast  Level Estimated
Wed 01:27:00 AM 32.1076 102.2279 130° Southeast  Level Estimated
Wed 01:28:00 AM 32.0266 102.3399 130° Southeast  Level Estimated
Wed 01:29:00 AM 31.9454 102.4516 131° Southeast  Level Estimated
Wed 01:30:00 AM 31.8641 102.5631 131° Southeast  Level Estimated
Wed 01:31:00 AM 31.7828 102.6745 131° Southeast  Level Estimated
Wed 01:32:00 AM 31.7013 102.7856 131° Southeast  Level Estimated
Wed 01:33:00 AM 31.6197 102.8966 131° Southeast  Level Estimated
Wed 01:34:00 AM 31.5381 103.0073 131° Southeast  Level Estimated
Wed 01:35:00 AM 31.4563 103.1179 131° Southeast  Level Estimated
Wed 01:36:00 AM 31.3745 103.2283 131° Southeast  Level Estimated
Wed 01:37:00 AM 31.2926 103.3385 131° Southeast  Level Estimated
Wed 01:38:00 AM 31.2105 103.4484 131° Southeast  Level Estimated
Wed 01:39:00 AM 31.1284 103.5583 131° Southeast  Level Estimated
Wed 01:40:00 AM 31.0462 103.6679 131° Southeast  Level Estimated
Wed 01:41:00 AM 30.9639 103.7773 131° Southeast  Level Estimated
Wed 01:42:00 AM 30.8815 103.8865 131° Southeast  Level Estimated
Wed 01:43:00 AM 30.7990 103.9956 131° Southeast  Level Estimated
Wed 01:44:00 AM 30.7164 104.1044 131° Southeast  Level Estimated
Wed 01:45:00 AM 30.6337 104.2131 131° Southeast  Level Estimated
Wed 01:46:00 AM 30.5510 104.3215 132° Southeast  Level Estimated
Wed 01:47:00 AM 30.4681 104.4298 132° Southeast  Level Estimated
Wed 01:48:00 AM 30.3852 104.5380 132° Southeast  Level Estimated
Wed 01:49:00 AM 30.3022 104.6459 132° Southeast  Level Estimated
Wed 01:50:00 AM 30.2190 104.7536 132° Southeast  Level Estimated
Wed 01:51:00 AM 30.1358 104.8612 132° Southeast  Level Estimated
Wed 01:52:00 AM 30.0525 104.9686 132° Southeast  Level Estimated
Wed 01:53:00 AM 29.9691 105.0758 132° Southeast  Level Estimated
Wed 01:54:00 AM 29.8857 105.1828 132° Southeast  Level Estimated
Wed 01:55:00 AM 29.8021 105.2896 132° Southeast  Level Estimated
Wed 01:56:00 AM 29.7185 105.3963 132° Southeast  Level Estimated
Wed 01:57:00 AM 29.6347 105.5028 132° Southeast  Level Estimated
Wed 01:58:00 AM 29.5509 105.6091 132° Southeast  Level Estimated
Wed 01:59:00 AM 29.4670 105.7152 132° Southeast  Level Estimated
Wed 02:00:00 AM 29.3831 105.8212 132° Southeast  Level Estimated
Wed 02:01:00 AM 29.2990 105.9270 132° Southeast  Level Estimated
Wed 02:02:00 AM 29.2148 106.0326 132° Southeast  Level Estimated
Wed 02:03:00 AM 29.1306 106.1380 132° Southeast  Level Estimated
Wed 02:04:00 AM 29.0463 106.2433 132° Southeast  Level Estimated
Wed 02:05:00 AM 28.9619 106.3484 133° Southeast  Level Estimated
Wed 02:06:00 AM 28.8774 106.4533 133° Southeast  Level Estimated
Wed 02:07:00 AM 28.7929 106.5580 133° Southeast  Level Estimated
Wed 02:08:00 AM 28.7082 106.6626 133° Southeast  Level Estimated
Wed 02:09:00 AM 28.6235 106.7670 133° Southeast  Level Estimated
Wed 02:10:00 AM 28.5387 106.8713 133° Southeast  Level Estimated
Wed 02:11:00 AM 28.4538 106.9753 133° Southeast  Level Estimated
Wed 02:12:00 AM 28.3689 107.0792 133° Southeast  Level Estimated
Wed 02:13:00 AM 28.2838 107.1830 133° Southeast  Level Estimated
Wed 02:14:00 AM 28.1987 107.2866 133° Southeast  Level Estimated
Wed 02:15:00 AM 28.1135 107.3900 133° Southeast  Level Estimated
Wed 02:16:00 AM 28.0282 107.4932 133° Southeast  Level Estimated
Wed 02:17:00 AM 27.9429 107.5963 133° Southeast  Level Estimated
Wed 02:18:00 AM 27.8575 107.6992 133° Southeast  Level Estimated
Wed 02:19:00 AM 27.7720 107.8020 133° Southeast  Level Estimated
Wed 02:20:00 AM 27.6864 107.9046 133° Southeast  Level Estimated
Wed 02:21:00 AM 27.6007 108.0070 133° Southeast  Level Estimated
Wed 02:22:00 AM 27.5150 108.1093 133° Southeast  Level Estimated
Wed 02:23:00 AM 27.4292 108.2114 133° Southeast  Level Estimated
Wed 02:24:00 AM 27.3433 108.3134 133° Southeast  Level Estimated
Wed 02:25:00 AM 27.2574 108.4152 134° Southeast  Level Estimated
Wed 02:26:00 AM 27.1714 108.5168 134° Southeast  Level Estimated
Wed 02:27:00 AM 27.0853 108.6183 134° Southeast  Level Estimated
Wed 02:28:00 AM 26.9991 108.7197 134° Southeast  Level Estimated
Wed 02:29:00 AM 26.9128 108.8208 134° Southeast  Level Estimated
Wed 02:30:00 AM 26.8265 108.9218 134° Southeast  Level Estimated
Wed 02:31:00 AM 26.7402 109.0227 134° Southeast  Level Estimated
Wed 02:32:00 AM 26.6537 109.1234 134° Southeast  Level Estimated
Wed 02:33:00 AM 26.5672 109.2240 134° Southeast  Level Estimated
Wed 02:34:00 AM 26.4806 109.3244 134° Southeast  Level Estimated
Wed 02:35:00 AM 26.3939 109.4247 134° Southeast  Level Estimated
Wed 02:36:00 AM 26.3072 109.5248 134° Southeast  Level Estimated
Wed 02:36:07 AM 24.8510 110.2730 134° Southeast 504 580 39,100  Level FlightAware ADS-B
Wed 02:36:47 AM 24.8070 110.3450 124° Southeast 504 580 39,100  Level FlightAware ADS-B
Wed 02:37:27 AM 24.7620 110.4180 124° Southeast 504 580 39,100  Level FlightAware ADS-B
Wed 02:38:07 AM 24.7180 110.4900 124° Southeast 504 580 39,100  Level FlightAware ADS-B
Wed 02:38:47 AM 24.6740 110.5630 124° Southeast 504 580 39,100  Level FlightAware ADS-B
Wed 02:39:37 AM 24.6180 110.6530 124° Southeast 504 580 39,100  Level FlightAware ADS-B
Wed 02:40:12 AM 24.5190 110.7910 128° Southeast 511 588 39,100  Level FlightAware ADS-B
Wed 02:40:57 AM 24.4620 110.8790 125° Southeast 511 588 39,100  Level FlightAware ADS-B
Wed 02:41:57 AM 24.3750 111.0140 125° Southeast 506 582 39,100  Level FlightAware ADS-B
Wed 02:42:37 AM 24.3190 111.1010 125° Southeast 507 583 39,100  Level FlightAware ADS-B
Wed 02:43:17 AM 24.2630 111.1880 125° Southeast 508 585 39,100  Level FlightAware ADS-B
Wed 02:44:02 AM 24.2050 111.2710 127° Southeast 503 579 39,100  Level FlightAware ADS-B
Wed 02:44:42 AM 24.1350 111.3510 134° Southeast 498 573 39,100  Level FlightAware ADS-B
Wed 02:45:22 AM 24.0740 111.4160 136° Southeast 500 575 39,100  Level FlightAware ADS-B
Wed 02:46:02 AM 24.0040 111.4910 136° Southeast 506 582 39,100  Level FlightAware ADS-B
Wed 02:46:52 AM 23.9200 111.5830 135° Southeast 509 586 39,100 -200 Level FlightAware ADS-B
Wed 02:47:32 AM 23.8560 111.6510 136° Southeast 506 582 38,800 -821 Descending FlightAware ADS-B
Wed 02:48:27 AM 23.7600 111.7530 136° Southeast 513 590 37,800 -1,011 Descending FlightAware ADS-B
Wed 02:49:07 AM 23.6920 111.8270 135° Southeast 511 588 37,200 -880 Descending FlightAware ADS-B
Wed 02:49:42 AM 23.6340 111.8890 136° Southeast 515 593 36,700 -918 Descending FlightAware ADS-B
Wed 02:50:32 AM 23.5500 111.9780 136° Southeast 514 592 35,900 -505 Descending FlightAware ADS-B
Wed 02:51:17 AM 23.4810 112.0530 135° Southeast 514 592 35,900 -1,059 Level FlightAware ADS-B
Wed 02:51:57 AM 23.4000 112.1380 136° Southeast 514 592 34,400 -1,453 Descending FlightAware ADS-B
Wed 02:52:52 AM 23.3110 112.2320 136° Southeast 515 593 33,600 -821 Descending FlightAware ADS-B
Wed 02:53:32 AM 23.2410 112.3060 136° Southeast 513 590 33,100 -333 Descending FlightAware ADS-B
Wed 02:54:22 AM 23.1560 112.3980 135° Southeast 512 589 33,100  Level FlightAware ADS-B
Wed 02:55:02 AM 23.1030 112.4850 124° Southeast 521 600 33,100 -75 Level FlightAware ADS-B
Wed 02:55:42 AM 23.0690 112.5820 111° Southeast 526 605 33,000 -776 Descending FlightAware ADS-B
Wed 02:56:27 AM 23.0560 112.7010 97° East 532 612 32,000 -1,412 Descending FlightAware ADS-B
Wed 02:57:07 AM 23.0490 112.8050 94° East 536 617 31,000 -1,553 Descending FlightAware ADS-B
Wed 02:57:52 AM 23.0410 112.9220 94° East 535 616 29,800 -1,650 Descending FlightAware ADS-B
Wed 02:58:27 AM 23.0330 113.0250 95° East 539 620 28,800 -1,575 Descending FlightAware ADS-B
Wed 02:59:12 AM 23.0010 113.1360 107° East 514 592 27,700 -1,467 Descending FlightAware ADS-B
Wed 02:59:57 AM 22.9270 113.2160 135° Southeast 487 560 26,600 -776 Descending FlightAware ADS-B
Wed 03:00:37 AM 22.8490 113.2500 158° South 475 547 26,600  Level FlightAware ADS-B
Wed 03:01:17 AM 22.7600 113.2810 162° South 477 549 26,600  Level FlightAware ADS-B
Wed 03:02:02 AM 22.6700 113.3130 162° South 480 552 26,600  Level FlightAware ADS-B
Wed 03:02:42 AM 22.5820 113.3430 163° South 481 554 26,600 -141 Level FlightAware ADS-B
Wed 03:03:27 AM 22.4860 113.3760 162° South 472 543 26,400 -918 Descending FlightAware ADS-B
Wed 03:04:07 AM 22.4040 113.4040 162° South 453 521 25,300 -1,725 Descending FlightAware ADS-B
Wed 03:04:47 AM 22.3250 113.4310 162° South 439 505 24,100 -1,341 Descending FlightAware ADS-B
Wed 03:05:32 AM 22.2440 113.4590 162° South 437 503 23,400 -494 Descending FlightAware ADS-B
Wed 03:06:12 AM 22.1790 113.4820 162° South 437 503 23,400  Level FlightAware ADS-B
Wed 03:06:52 AM 22.1140 113.5050 162° South 437 503 23,400  Level FlightAware ADS-B
Wed 03:07:32 AM 22.0480 113.5280 162° South 437 503 23,400  Level FlightAware ADS-B
Wed 03:08:22 AM 21.9670 113.5570 162° South 437 503 23,400  Level FlightAware ADS-B
Wed 03:09:02 AM 21.9010 113.5800 162° South 437 503 23,400 -1,438 Level FlightAware ADS-B
Wed 03:11:00 AM 22.0965 113.7400 37° Northeast  Level Estimated
Wed 03:12:00 AM 22.1958 113.8216 37° Northeast  Level Estimated
Wed 03:13:00 AM 22.2951 113.9032 37° Northeast  Level Estimated
Wed 03:14:00 AM 22.3089 113.9146 37° Northeast  Level Estimated
Wed 03:15:00 AM 22.3089 113.9146 110° East  Level Estimated
Wed 03:16:00 AM 22.3089 113.9146 110° East  Level Estimated
Wed 03:17:00 AM 22.3089 113.9146 110° East  Level Estimated
Wed 03:18:00 AM 22.3089 113.9146 110° East  Level Estimated
Wed 03:19:00 AM 22.3089 113.9146 110° East  Level Estimated
Wed 03:20:00 AM 22.3089 113.9146 110° East  Level Estimated
Wed 03:20:07 AM 22.3160 114.3900 110° East 254 292 6,500  Level FlightAware ADS-B
Wed 03:22:00 AM 22.3124 114.1360 269° West  Level Estimated
Wed 03:23:00 AM 22.3103 114.0011 269° West  Level Estimated
Wed 03:23:27 AM 22.3970 114.2060 269° West 191 220 4,600  Level FlightAware ADS-B
Wed 03:23:42 AM 22.4000 114.1920 283° West 191 220 4,600 -400 Level FlightAware ADS-B
Wed 03:24:12 AM 22.3960 114.1640 261° West 189 217 4,300 -655 Descending FlightAware ADS-B
Wed 03:24:37 AM 22.3890 114.1420 251° West 192 221 4,000 -900 Descending FlightAware ADS-B
Wed 03:24:52 AM 22.3850 114.1270 254° West 191 220 3,700 -1,067 Descending FlightAware ADS-B
Wed 03:25:22 AM 22.3760 114.1010 249° West 184 212 3,200 -982 Descending FlightAware ADS-B
Wed 03:25:47 AM 22.3700 114.0800 253° West 186 214 2,800 -873 Descending FlightAware ADS-B
Wed 03:26:17 AM 22.3610 114.0520 251° West 186 214 2,400 -933 Descending FlightAware ADS-B
Wed 03:26:32 AM 22.3570 114.0390 252° West 181 208 2,100 -1,050 Descending FlightAware ADS-B
Wed 03:26:57 AM 22.3500 114.0180 250° West 178 205 1,700 -900 Descending FlightAware ADS-B
Wed 03:27:12 AM 22.3460 114.0060 250° West 171 197 1,500 -800 Descending FlightAware ADS-B
Wed 03:27:42 AM 22.3380 113.9820 250° West 160 184 1,100 -873 Descending FlightAware ADS-B
Wed 03:28:07 AM 22.3320 113.9630 251° West 160 184 700 -873 Descending FlightAware ADS-B
Wed 03:28:37 AM 22.3250 113.9400 252° West 160 184 300 -800 Descending FlightAware ADS-B

Login

Don't have an account? Register now (free) for customized features, flight alerts, and more!